TAF KBUR
KBUR 280541Z 2806/2906 VRB03KT P6SM SKC FM282100 18005KT P6SM SKC FM290300 VRB03KT P6SM SKC=
METAR KBUR
KBUR 280753Z 00000KT 10SM CLR 13/M04 A3015 RMK AO2 SLP199 T01331044 402670094 ?
KBUR 280653Z 00000KT 10SM CLR 14/M06 A3015 RMK AO2 SLP199 T01441061
KBUR 280553Z 00000KT 10SM CLR 16/M06 A3014 RMK AO2 SLP195 T01561056 10250 20144 53012 ?
KBUR 280453Z 00000KT 10SM CLR 16/M07 A3012 RMK AO2 SLP191 T01611067 ?
KBUR 280353Z 00000KT 10SM CLR 17/M07 A3011 RMK AO2 SLP189 T01721072 ?
WC KBUR
WS KBUR
WV KBUR